Carnduff, Canada
Current Conditions -  °F | °C
As of 7:00 PM on Wednesday 26 Nov 2014 (Local Time) from CYEN Reporting Station
Few Clouds Few Clouds  
Wind Chill: -25°   Ceiling: Unl
Heat Index: -11°   Visibility: 15mi
Dew Point: -15°   Wind: 6mph
Humidity: 84%   Direction: 110°ESE
Pressure: 30.4"   Gusts: NA
Location:  49.17°N, 101.78°W
Report Text: CYEN 270100Z 11005KT 15SM FEW230 M24/M26 A3040 RMK CI0 SLP357
Loading
Personal Weather Stations






























Interactive Weather Map New forecast layout! Learn more

10-Day Weather Forecast

Advertisements
Track Severe Weather on mobile